Time;durP1;ratioP1;P1;durP2;ratioP2;P2;SDS_P1;SDS_P2;PMS_P1;PMS_P2;Temp;Humidity;BMP_temperature;BMP_pressure;BME280_temperature;BME280_humidity;BME280_pressure;Samples;Min_cycle;Max_cycle;Signal;HPM_P1;HPM_P2
2022/11/12 00:00:52;;;;;;;5.87;1.80;;;28.00;89.50;;;;;;5006433;28;20796;-85
2022/11/12 00:03:20;;;;;;;5.00;1.48;;;28.30;88.30;;;;;;5001546;28;20403;-84
2022/11/12 00:05:48;;;;;;;3.75;1.70;;;28.40;89.10;;;;;;5012835;28;20490;-86
2022/11/12 00:08:16;;;;;;;5.75;1.60;;;28.60;86.20;;;;;;5011502;28;20494;-86
2022/11/12 00:10:43;;;;;;;4.93;1.50;;;28.70;87.30;;;;;;5001871;28;20409;-85
2022/11/12 00:13:10;;;;;;;5.07;1.50;;;28.90;85.30;;;;;;5010480;28;20409;-84
2022/11/12 00:15:38;;;;;;;2.90;1.23;;;29.40;82.90;;;;;;5012140;28;20478;-85
2022/11/12 00:18:06;;;;;;;5.72;1.40;;;29.90;78.50;;;;;;5010434;28;20467;-86
2022/11/12 00:20:33;;;;;;;28.35;2.38;;;30.20;76.80;;;;;;5015460;28;20391;-91
2022/11/12 00:23:01;;;;;;;31.77;6.53;;;30.30;74.00;;;;;;5017621;28;20439;-91
2022/11/12 00:25:28;;;;;;;12.48;1.95;;;30.30;73.40;;;;;;5003845;28;20410;-91
2022/11/12 00:28:04;;;;;;;2.60;1.00;;;30.50;70.50;;;;;;5013634;28;20451;-88
2022/11/12 00:30:35;;;;;;;3.03;1.10;;;30.60;68.30;;;;;;5008270;28;20407;-89
2022/11/12 00:33:03;;;;;;;2.08;1.10;;;30.60;69.30;;;;;;5015158;28;20851;-87
2022/11/12 00:35:33;;;;;;;8.50;1.55;;;30.70;68.00;;;;;;5012581;28;20432;-85
2022/11/12 00:38:00;;;;;;;3.75;1.27;;;30.40;68.30;;;;;;5004388;28;20373;-88
2022/11/12 00:40:28;;;;;;;3.40;1.30;;;30.50;68.50;;;;;;5002608;28;20458;-94
2022/11/12 00:42:56;;;;;;;3.50;1.20;;;30.70;68.50;;;;;;5012995;28;20379;-84
2022/11/12 00:45:23;;;;;;;4.63;1.17;;;30.80;66.80;;;;;;4998724;28;20797;-87
2022/11/12 00:47:53;;;;;;;7.55;1.20;;;30.70;68.50;;;;;;5004429;28;20387;-88
2022/11/12 00:50:20;;;;;;;17.05;4.63;;;31.00;65.70;;;;;;5003558;28;20495;-85
2022/11/12 00:52:47;;;;;;;4.72;1.88;;;31.20;66.10;;;;;;5002780;28;20887;-84
2022/11/12 00:55:14;;;;;;;5.38;1.85;;;31.30;66.90;;;;;;5018141;28;20404;-87
2022/11/12 00:57:41;;;;;;;8.88;1.60;;;31.10;67.20;;;;;;5007774;28;20375;-82
2022/11/12 01:00:14;;;;;;;6.97;1.40;;;31.20;67.30;;;;;;5012476;28;20391;-87
2022/11/12 01:02:41;;;;;;;3.25;1.30;;;31.60;66.30;;;;;;5001220;28;20387;-86
2022/11/12 01:05:08;;;;;;;5.50;1.58;;;31.90;65.40;;;;;;5011983;28;20379;-87
2022/11/12 01:07:35;;;;;;;2.85;1.40;;;32.10;64.90;;;;;;5012015;28;20414;-87
2022/11/12 01:10:02;;;;;;;4.40;1.40;;;32.10;64.50;;;;;;5012691;28;20395;-85
2022/11/12 01:12:31;;;;;;;6.38;1.73;;;32.20;65.00;;;;;;5011483;28;20385;-85
2022/11/12 01:14:58;;;;;;;4.88;1.70;;;32.30;63.20;;;;;;5013757;28;20393;-87
2022/11/12 01:17:26;;;;;;;4.65;1.75;;;32.30;63.20;;;;;;5017229;28;20438;-87
2022/11/12 01:19:53;;;;;;;3.67;1.60;;;32.40;62.30;;;;;;5015122;28;20386;-85
2022/11/12 01:22:20;;;;;;;3.08;1.65;;;32.60;61.80;;;;;;5014933;28;20387;-87
2022/11/12 01:24:46;;;;;;;4.15;1.50;;;32.50;60.90;;;;;;5012701;28;20940;-86
2022/11/12 01:27:14;;;;;;;3.25;1.40;;;32.30;61.60;;;;;;5010423;28;20391;-86
2022/11/12 01:29:41;;;;;;;3.15;1.35;;;32.20;61.20;;;;;;5005314;28;20403;-84
2022/11/12 01:32:08;;;;;;;2.25;1.30;;;32.30;60.50;;;;;;5011728;28;20384;-84
2022/11/12 01:34:35;;;;;;;3.00;1.10;;;32.30;61.10;;;;;;5022274;28;20411;-92
2022/11/12 01:37:02;;;;;;;2.97;1.20;;;32.50;61.50;;;;;;4997324;28;20408;-85
2022/11/12 01:39:28;;;;;;;3.05;1.20;;;32.80;60.70;;;;;;5010888;28;20896;-89
2022/11/12 01:41:56;;;;;;;20.37;2.27;;;33.20;60.70;;;;;;5009344;28;20863;-86
2022/11/12 01:44:28;;;;;;;4.15;1.63;;;33.40;59.50;;;;;;5010559;28;20797;-85
2022/11/12 01:47:13;;;;;;;2.08;1.27;;;33.60;59.30;;;;;;5012216;28;20453;-87
2022/11/12 01:49:52;;;;;;;4.78;1.10;;;33.60;58.70;;;;;;5001215;28;20448;-89
2022/11/12 01:52:19;;;;;;;3.70;1.00;;;33.80;57.60;;;;;;5011373;28;20472;-86
2022/11/12 01:54:49;;;;;;;3.92;1.63;;;33.80;57.70;;;;;;5011978;28;20429;-86
2022/11/12 01:57:19;;;;;;;6.97;1.35;;;34.10;57.20;;;;;;5001455;28;20420;-87
2022/11/12 01:59:50;;;;;;;2.97;1.30;;;34.00;57.90;;;;;;5010944;28;20469;-89
2022/11/12 02:02:17;;;;;;;2.45;1.20;;;34.00;57.10;;;;;;5012503;28;20871;-88
2022/11/12 02:04:45;;;;;;;4.10;1.10;;;34.10;56.80;;;;;;5012354;28;20482;-89
2022/11/12 02:07:12;;;;;;;24.73;3.05;;;34.50;56.00;;;;;;5014968;28;20443;-85
2022/11/12 02:09:40;;;;;;;9.13;1.33;;;34.70;56.30;;;;;;5002640;28;20476;-87
2022/11/12 02:13:56;;;;;;;12.47;1.97;;;34.40;55.20;;;;;;4996959;28;20391;-84
2022/11/12 02:14:55;;;;;;;12.63;2.08;;;34.30;55.20;;;;;;5022919;28;20390;-90
2022/11/12 02:17:22;;;;;;;10.80;1.70;;;34.60;54.30;;;;;;5011030;28;20381;-85
2022/11/12 02:19:50;;;;;;;14.88;2.47;;;35.00;54.60;;;;;;5026127;28;20380;-90
2022/11/12 02:22:17;;;;;;;6.00;1.65;;;35.00;54.80;;;;;;5032012;28;20418;-87
2022/11/12 02:24:44;;;;;;;10.57;2.00;;;35.10;54.70;;;;;;5012978;28;20392;-89
2022/11/12 02:27:12;;;;;;;6.63;1.42;;;35.30;55.50;;;;;;5022717;28;20383;-89
2022/11/12 02:29:45;;;;;;;10.70;1.75;;;35.40;53.90;;;;;;5013148;28;20487;-88
2022/11/12 02:32:13;;;;;;;6.97;1.30;;;35.40;54.10;;;;;;5020633;28;20387;-88
2022/11/12 02:34:40;;;;;;;10.68;1.60;;;35.40;54.00;;;;;;5012747;28;20396;-88
2022/11/12 02:37:08;;;;;;;23.67;3.20;;;35.50;54.10;;;;;;5014599;28;20386;-89
2022/11/12 02:39:35;;;;;;;6.00;1.55;;;35.80;53.70;;;;;;5017942;28;20549;-86
2022/11/12 02:42:04;;;;;;;3.97;1.27;;;36.00;53.10;;;;;;5016927;28;20437;-93
2022/11/12 02:44:32;;;;;;;4.88;1.20;;;35.90;53.00;;;;;;5017299;28;20387;-91
2022/11/12 02:46:59;;;;;;;5.53;1.50;;;35.90;54.10;;;;;;5015376;28;20387;-95
2022/11/12 02:49:26;;;;;;;2.10;1.20;;;35.80;53.40;;;;;;5015631;28;20470;-90
2022/11/12 02:51:53;;;;;;;3.38;1.40;;;35.60;53.30;;;;;;5010545;28;20408;-91
2022/11/12 02:54:20;;;;;;;6.13;1.70;;;35.50;53.90;;;;;;5010911;28;20437;-89
2022/11/12 02:56:47;;;;;;;4.90;1.40;;;35.80;54.50;;;;;;5017113;28;20379;-91
2022/11/12 02:59:14;;;;;;;3.53;1.20;;;35.80;53.90;;;;;;5015305;28;20375;-88
2022/11/12 03:01:41;;;;;;;22.43;2.67;;;35.20;53.80;;;;;;5030206;28;20391;-90
2022/11/12 03:04:08;;;;;;;25.70;3.00;;;34.90;54.80;;;;;;5013330;28;20393;-89
2022/11/12 03:06:35;;;;;;;5.10;1.40;;;34.10;55.70;;;;;;5014092;28;20430;-88
2022/11/12 03:09:02;;;;;;;2.80;1.33;;;33.10;57.70;;;;;;5016213;28;20367;-91
2022/11/12 03:11:29;;;;;;;3.67;1.30;;;32.30;59.10;;;;;;5011419;28;20512;-89
2022/11/12 03:13:56;;;;;;;4.35;1.45;;;32.10;60.30;;;;;;5003870;28;20375;-86
2022/11/12 03:16:23;;;;;;;3.03;1.40;;;32.70;60.00;;;;;;5005728;28;20396;-85
2022/11/12 03:18:50;;;;;;;3.60;1.38;;;33.30;59.40;;;;;;5004851;28;20943;-86
2022/11/12 03:21:17;;;;;;;5.88;1.30;;;33.90;57.90;;;;;;5007728;28;20518;-86
2022/11/12 03:23:44;;;;;;;7.85;1.90;;;34.00;57.60;;;;;;5013789;28;20386;-85
2022/11/12 03:26:11;;;;;;;5.28;1.50;;;34.30;56.00;;;;;;5013982;28;20462;-85
2022/11/12 03:28:37;;;;;;;6.72;1.77;;;34.40;56.30;;;;;;4999975;28;20398;-85
2022/11/12 03:31:05;;;;;;;3.43;1.60;;;34.20;56.00;;;;;;5013774;28;20507;-84
2022/11/12 03:33:32;;;;;;;5.57;1.35;;;33.90;56.60;;;;;;5010829;28;20796;-84
2022/11/12 03:35:59;;;;;;;4.30;1.50;;;33.80;56.20;;;;;;5001558;28;20474;-83
2022/11/12 03:38:26;;;;;;;2.97;1.40;;;33.40;56.50;;;;;;5012687;28;20379;-87
2022/11/12 03:40:53;;;;;;;2.53;1.00;;;33.00;56.50;;;;;;5013584;28;20388;-85
2022/11/12 03:43:23;;;;;;;3.80;1.25;;;32.70;56.70;;;;;;5007782;28;20452;-84
2022/11/12 03:45:50;;;;;;;2.20;1.23;;;32.70;57.70;;;;;;5013677;28;20386;-87
2022/11/12 03:48:17;;;;;;;2.17;1.00;;;32.90;57.10;;;;;;5003210;28;20420;-88
2022/11/12 03:50:44;;;;;;;37.90;3.23;;;33.30;56.40;;;;;;5011813;28;20427;-86
2022/11/12 03:53:11;;;;;;;10.75;1.45;;;33.20;56.50;;;;;;5014108;28;20375;-87
2022/11/12 03:55:38;;;;;;;27.17;2.38;;;33.40;56.40;;;;;;5016387;28;20380;-88
2022/11/12 03:58:05;;;;;;;7.50;1.20;;;33.50;55.10;;;;;;5015105;28;20375;-91
2022/11/12 04:00:32;;;;;;;2.28;1.20;;;33.20;55.70;;;;;;5029042;28;20395;-86
2022/11/12 04:03:00;;;;;;;13.80;1.75;;;32.50;56.70;;;;;;5004218;28;20478;-88
2022/11/12 04:08:34;;;;;;;4.15;1.35;;;31.90;58.70;;;;;;5013211;28;20398;-84
2022/11/12 04:11:05;;;;;;;6.10;1.35;;;31.90;58.70;;;;;;5008776;28;20446;-85
2022/11/12 04:13:32;;;;;;;5.38;1.65;;;31.90;58.90;;;;;;5012765;28;20383;-85
2022/11/12 04:21:51;;;;;;;5.55;1.60;;;32.20;60.80;;;;;;5004382;28;20427;-91
2022/11/12 04:27:29;;;;;;;3.70;1.60;;;32.20;61.10;;;;;;4989910;28;20366;-84
2022/11/12 04:30:15;;;;;;;14.30;2.23;;;32.10;61.70;;;;;;5012518;28;20407;-86
2022/11/12 04:32:53;;;;;;;14.48;2.72;;;32.00;61.80;;;;;;5012677;28;20384;-86
2022/11/12 04:35:22;;;;;;;26.83;3.47;;;32.00;61.40;;;;;;5024851;28;20391;-86
2022/11/12 04:37:49;;;;;;;9.73;2.30;;;32.10;61.60;;;;;;5001798;28;20840;-84
2022/11/12 04:45:51;;;;;;;29.88;3.83;;;31.60;63.20;;;;;;5016128;28;20383;-85
2022/11/12 04:48:18;;;;;;;7.35;1.83;;;31.60;63.40;;;;;;5015731;28;20409;-86
2022/11/12 04:50:49;;;;;;;5.15;1.80;;;31.60;63.10;;;;;;5012042;28;20845;-86
2022/11/12 04:53:16;;;;;;;9.95;2.38;;;31.30;64.00;;;;;;5012073;28;20375;-86
2022/11/12 04:55:43;;;;;;;27.58;3.88;;;31.00;64.90;;;;;;5011910;28;20379;-86
2022/11/12 04:58:10;;;;;;;12.73;2.60;;;30.60;65.80;;;;;;5008066;28;20384;-84
2022/11/12 05:00:37;;;;;;;10.07;2.70;;;30.20;66.20;;;;;;5012457;28;20391;-87
2022/11/12 05:03:04;;;;;;;10.30;2.30;;;30.10;67.40;;;;;;5012147;28;20379;-85
2022/11/12 05:05:31;;;;;;;12.25;2.50;;;30.60;66.70;;;;;;4994322;28;20469;-86
2022/11/12 05:08:00;;;;;;;6.57;1.70;;;31.20;66.00;;;;;;4998884;28;20387;-90
2022/11/12 05:10:28;;;;;;;6.63;1.90;;;31.60;63.30;;;;;;5012485;28;20411;-88
2022/11/12 05:12:55;;;;;;;8.88;1.80;;;31.00;64.10;;;;;;4998369;28;20384;-88
2022/11/12 05:15:23;;;;;;;5.05;1.77;;;30.30;66.00;;;;;;5012281;28;20478;-90
2022/11/12 05:17:50;;;;;;;5.43;1.73;;;29.70;67.00;;;;;;4993080;28;20389;-86
2022/11/12 05:20:17;;;;;;;6.25;1.90;;;29.20;68.70;;;;;;4999106;28;20422;-89
2022/11/12 05:22:44;;;;;;;6.93;1.85;;;28.70;70.60;;;;;;5012470;28;20382;-90
2022/11/12 05:25:11;;;;;;;7.55;1.98;;;28.50;71.50;;;;;;5003251;28;20477;-86
2022/11/12 05:27:38;;;;;;;8.10;2.10;;;28.30;71.60;;;;;;5011612;28;20991;-86
2022/11/12 05:30:06;;;;;;;7.70;1.80;;;28.10;72.30;;;;;;5011462;28;20403;-89
2022/11/12 05:32:33;;;;;;;5.82;1.80;;;27.80;73.60;;;;;;5011584;28;21211;-85
2022/11/12 05:35:00;;;;;;;3.20;1.70;;;27.50;74.50;;;;;;5010765;28;20430;-89
2022/11/12 05:37:28;;;;;;;6.22;1.73;;;27.40;74.70;;;;;;4999020;28;20386;-89
2022/11/12 05:39:55;;;;;;;4.90;1.80;;;27.10;76.10;;;;;;4998135;28;20405;-88
2022/11/12 05:42:22;;;;;;;5.65;1.80;;;26.80;76.80;;;;;;5010897;28;20394;-89
2022/11/12 05:44:49;;;;;;;6.45;1.90;;;26.70;77.40;;;;;;5011919;28;20391;-83
2022/11/12 05:47:16;;;;;;;5.25;1.83;;;26.50;78.60;;;;;;5009182;28;20387;-87
2022/11/12 05:49:42;;;;;;;5.70;1.88;;;26.30;79.40;;;;;;5011455;28;20415;-92
2022/11/12 05:52:09;;;;;;;4.57;1.88;;;26.20;80.70;;;;;;5009806;28;20533;-90
2022/11/12 05:54:36;;;;;;;5.80;2.00;;;26.00;81.90;;;;;;5013006;28;20387;-88
2022/11/12 05:57:05;;;;;;;5.30;2.13;;;25.80;83.40;;;;;;5015412;28;20391;-88
2022/11/12 05:59:38;;;;;;;6.88;2.30;;;25.60;84.70;;;;;;5006613;28;20395;-88
2022/11/12 06:02:05;;;;;;;5.38;2.10;;;25.50;87.00;;;;;;5007018;28;20464;-83
2022/11/12 06:04:32;;;;;;;6.65;2.10;;;25.40;88.90;;;;;;5011887;28;20478;-92
2022/11/12 06:07:02;;;;;;;6.20;2.10;;;25.40;90.20;;;;;;4994617;28;20396;-86
2022/11/12 06:09:29;;;;;;;7.50;2.30;;;25.40;91.10;;;;;;5011129;28;20411;-86
2022/11/12 06:11:56;;;;;;;5.53;2.20;;;25.40;92.20;;;;;;4998793;28;20397;-89
2022/11/12 06:14:23;;;;;;;4.93;2.00;;;25.30;93.10;;;;;;5009592;28;20374;-89
2022/11/12 06:16:50;;;;;;;6.78;2.17;;;25.30;93.80;;;;;;5002638;28;20389;-87
2022/11/12 06:19:17;;;;;;;7.27;2.37;;;25.20;94.60;;;;;;4995545;28;20398;-91
2022/11/12 06:21:44;;;;;;;6.28;2.78;;;25.20;95.00;;;;;;4996946;28;20384;-90
2022/11/12 06:24:11;;;;;;;7.63;2.47;;;25.10;95.50;;;;;;5003674;28;20390;-91
2022/11/12 06:26:38;;;;;;;11.77;3.13;;;25.10;96.50;;;;;;5006885;28;20392;-85
2022/11/12 06:29:06;;;;;;;5.22;2.40;;;25.00;97.00;;;;;;4993655;28;20393;-95
2022/11/12 06:31:33;;;;;;;8.68;3.20;;;24.80;97.50;;;;;;4998247;28;20409;-84
2022/11/12 06:34:00;;;;;;;8.40;4.68;;;24.70;98.40;;;;;;4995710;28;20455;-89
2022/11/12 06:36:27;;;;;;;8.27;4.70;;;24.50;99.30;;;;;;4993874;28;20413;-92
2022/11/12 06:38:56;;;;;;;7.93;3.70;;;24.40;99.90;;;;;;5005614;28;20406;-90
2022/11/12 06:41:23;;;;;;;8.00;2.70;;;24.50;99.90;;;;;;5011927;28;20375;-86
2022/11/12 06:43:50;;;;;;;6.55;2.33;;;24.40;99.90;;;;;;5011110;28;21086;-90
2022/11/12 06:46:18;;;;;;;6.55;2.75;;;24.30;99.90;;;;;;5011180;28;20898;-89
2022/11/12 06:48:45;;;;;;;7.15;2.85;;;24.30;99.90;;;;;;4994081;28;20388;-85
2022/11/12 06:51:17;;;;;;;6.97;2.50;;;24.20;99.90;;;;;;4995930;28;20427;-88
2022/11/12 06:53:44;;;;;;;5.38;2.63;;;24.20;99.90;;;;;;4995881;28;20381;-84
2022/11/12 06:56:12;;;;;;;7.95;3.10;;;23.50;99.90;;;;;;4996247;28;20398;-84
2022/11/12 06:58:41;;;;;;;8.18;2.47;;;24.10;99.90;;;;;;5016410;28;20410;-84
2022/11/12 07:01:14;;;;;;;6.13;2.60;;;24.00;99.90;;;;;;5021256;28;20375;-84
2022/11/12 07:03:45;;;;;;;7.00;2.50;;;24.00;99.90;;;;;;5020363;28;20394;-83
2022/11/12 07:06:22;;;;;;;6.25;2.30;;;24.10;99.90;;;;;;5021538;28;20434;-86
2022/11/12 07:08:50;;;;;;;7.90;2.45;;;24.20;99.90;;;;;;5022701;28;20368;-86
2022/11/12 07:11:19;;;;;;;5.25;2.20;;;24.30;99.90;;;;;;5020538;28;20411;-91
2022/11/12 07:13:46;;;;;;;4.85;2.20;;;24.20;99.90;;;;;;5023227;28;20371;-91
2022/11/12 07:16:17;;;;;;;6.97;2.40;;;24.30;99.90;;;;;;5025076;28;20391;-88
2022/11/12 07:18:48;;;;;;;8.18;2.35;;;24.40;99.90;;;;;;5024024;28;20382;-87
2022/11/12 07:21:20;;;;;;;6.07;2.37;;;24.50;99.90;;;;;;5021140;28;20411;-86
2022/11/12 07:23:47;;;;;;;6.82;2.20;;;24.60;99.90;;;;;;5023039;28;20660;-85
2022/11/12 07:26:17;;;;;;;6.90;2.50;;;24.60;99.90;;;;;;5023073;28;20398;-87
2022/11/12 07:28:51;;;;;;;6.10;2.50;;;24.50;99.90;;;;;;5002492;28;20432;-89
2022/11/12 07:31:20;;;;;;;7.63;2.33;;;24.20;99.90;;;;;;5014555;28;20407;-93
2022/11/12 07:33:48;;;;;;;5.47;2.38;;;24.00;99.90;;;;;;5022165;28;20367;-88
2022/11/12 07:36:20;;;;;;;7.87;2.30;;;23.90;99.90;;;;;;5022931;28;20376;-84
2022/11/12 07:38:51;;;;;;;6.57;2.10;;;23.90;99.90;;;;;;5025421;28;20387;-85
2022/11/12 07:41:27;;;;;;;4.55;2.20;;;23.80;99.90;;;;;;5025344;28;20387;-87
2022/11/12 07:43:54;;;;;;;6.03;2.10;;;23.70;99.90;;;;;;5027987;28;20847;-82
2022/11/12 07:46:24;;;;;;;5.40;2.07;;;23.50;99.90;;;;;;5029651;28;20462;-83
2022/11/12 07:48:53;;;;;;;5.60;2.00;;;23.30;99.90;;;;;;5029972;28;20372;-83
2022/11/12 07:51:26;;;;;;;6.73;2.30;;;23.20;99.90;;;;;;5029471;28;20478;-84
2022/11/12 07:53:56;;;;;;;5.57;2.22;;;23.00;99.90;;;;;;5016198;28;20381;-84
2022/11/12 07:56:29;;;;;;;7.45;2.25;;;22.90;99.90;;;;;;5022692;28;20394;-85
2022/11/12 07:58:58;;;;;;;7.18;2.35;;;22.80;99.90;;;;;;4994057;28;20381;-84
2022/11/12 08:01:34;;;;;;;7.05;2.35;;;22.70;99.90;;;;;;5017065;28;20381;-83
2022/11/12 08:04:03;;;;;;;6.47;2.43;;;22.70;99.90;;;;;;4985108;28;20729;-86
2022/11/12 08:06:31;;;;;;;6.90;2.33;;;22.70;99.90;;;;;;5021296;28;20442;-83
2022/11/12 08:09:00;;;;;;;5.32;2.40;;;22.50;99.90;;;;;;5025215;28;20375;-83
2022/11/12 08:11:30;;;;;;;6.63;2.40;;;22.50;99.90;;;;;;5021142;28;20432;-84
2022/11/12 08:13:57;;;;;;;6.40;2.60;;;22.50;99.90;;;;;;5014333;28;20372;-84
2022/11/12 08:16:25;;;;;;;7.27;2.53;;;22.40;99.90;;;;;;5023501;28;20383;-85
2022/11/12 08:18:52;;;;;;;5.93;2.47;;;22.30;99.90;;;;;;5021868;28;20794;-84
2022/11/12 08:21:21;;;;;;;8.45;2.50;;;22.20;99.90;;;;;;5021777;28;20386;-87
2022/11/12 08:23:51;;;;;;;8.17;2.50;;;22.20;99.90;;;;;;5022514;28;20411;-84
2022/11/12 08:26:19;;;;;;;7.50;2.53;;;22.20;99.90;;;;;;5022410;28;20404;-83
2022/11/12 08:28:49;;;;;;;5.72;2.35;;;22.10;99.90;;;;;;5003293;28;20387;-92
2022/11/12 08:31:21;;;;;;;6.00;2.40;;;22.10;99.90;;;;;;5004573;28;20857;-88
2022/11/12 08:34:10;;;;;;;6.82;2.60;;;22.00;99.90;;;;;;5003131;28;20380;-84
2022/11/12 08:36:51;;;;;;;5.88;2.50;;;21.60;99.90;;;;;;5016603;28;20714;-83
2022/11/12 08:39:21;;;;;;;4.63;2.40;;;22.00;99.90;;;;;;5024913;28;20876;-85
2022/11/12 08:41:48;;;;;;;8.40;2.60;;;22.00;99.90;;;;;;5021741;28;20398;-83
2022/11/12 08:44:17;;;;;;;8.23;2.67;;;22.00;99.90;;;;;;5019840;28;20475;-87
2022/11/12 08:46:44;;;;;;;7.13;2.60;;;21.90;99.90;;;;;;4997162;28;20387;-83
2022/11/12 08:49:11;;;;;;;5.73;2.53;;;21.90;99.90;;;;;;5007295;28;20446;-83
2022/11/12 08:51:38;;;;;;;5.80;2.47;;;21.90;99.90;;;;;;5000091;28;20404;-89
2022/11/12 08:54:05;;;;;;;5.63;2.63;;;21.90;99.90;;;;;;5011767;28;20381;-84
2022/11/12 08:56:32;;;;;;;5.45;2.42;;;21.90;99.90;;;;;;5017561;28;20378;-83
2022/11/12 08:59:00;;;;;;;5.95;2.22;;;21.80;99.90;;;;;;5006300;28;20385;-84
2022/11/12 09:01:32;;;;;;;6.20;2.53;;;21.80;99.90;;;;;;5016681;28;20391;-82
2022/11/12 09:03:59;;;;;;;8.00;2.20;;;21.90;99.90;;;;;;5005666;28;20395;-86
2022/11/12 09:06:26;;;;;;;6.25;2.50;;;21.80;99.90;;;;;;5017693;28;20386;-93
2022/11/12 09:08:53;;;;;;;5.38;2.38;;;21.80;99.90;;;;;;4998084;28;20392;-82
2022/11/12 09:11:20;;;;;;;8.10;2.35;;;21.80;99.90;;;;;;4992215;28;20472;-81
2022/11/12 09:13:48;;;;;;;6.85;2.63;;;21.70;99.90;;;;;;5004774;28;20398;-82
2022/11/12 09:16:16;;;;;;;5.90;2.63;;;21.80;99.90;;;;;;5004022;28;20393;-82
2022/11/12 09:18:43;;;;;;;7.97;2.58;;;21.80;99.90;;;;;;5002048;28;20416;-90
2022/11/12 09:21:11;;;;;;;7.07;2.45;;;21.80;99.90;;;;;;5006882;28;20387;-84
2022/11/12 09:23:38;;;;;;;6.78;2.70;;;21.70;99.90;;;;;;4998188;28;20505;-82
2022/11/12 09:26:06;;;;;;;6.47;2.45;;;21.80;99.90;;;;;;4996416;28;20554;-88
2022/11/12 09:28:33;;;;;;;6.20;2.65;;;21.80;99.90;;;;;;4991459;28;20408;-91
2022/11/12 09:31:01;;;;;;;9.25;2.63;;;21.70;99.90;;;;;;4992802;28;20415;-90
2022/11/12 09:33:33;;;;;;;9.30;2.72;;;21.60;99.90;;;;;;5012489;28;20387;-89
2022/11/12 09:36:03;;;;;;;7.65;2.85;;;21.50;99.90;;;;;;5003439;28;20464;-90
2022/11/12 09:38:30;;;;;;;8.60;3.00;;;21.50;99.90;;;;;;4998897;28;20384;-84
2022/11/12 09:41:01;;;;;;;6.97;3.10;;;21.50;99.90;;;;;;4992775;28;20413;-90
2022/11/12 09:43:34;;;;;;;6.30;3.20;;;21.40;99.90;;;;;;5001349;28;20784;-82
2022/11/12 09:46:37;;;;;;;11.13;3.80;;;21.30;99.90;;;;;;5004369;28;20899;-92
2022/11/12 09:49:14;;;;;;;7.72;3.17;;;21.30;99.90;;;;;;5000174;28;20426;-84
2022/11/12 09:51:54;;;;;;;7.53;3.05;;;21.20;99.90;;;;;;4996277;28;20419;-84
2022/11/12 09:54:27;;;;;;;6.97;3.00;;;21.20;99.90;;;;;;4995583;28;20516;-90
2022/11/12 09:56:54;;;;;;;7.97;3.13;;;21.10;99.90;;;;;;5007667;28;20394;-92
2022/11/12 09:59:25;;;;;;;7.80;3.28;;;21.00;99.90;;;;;;5000512;28;20388;-90
2022/11/12 10:02:13;;;;;;;8.02;3.10;;;21.00;99.90;;;;;;5002409;28;20423;-88
2022/11/12 10:04:44;;;;;;;6.88;3.17;;;21.00;99.90;;;;;;4996211;28;20750;-87
2022/11/12 10:07:17;;;;;;;7.22;3.30;;;20.90;99.90;;;;;;5000776;28;20402;-91
2022/11/12 10:09:54;;;;;;;8.03;3.30;;;20.80;99.90;;;;;;4995682;28;20401;-90
2022/11/12 10:12:46;;;;;;;6.80;2.90;;;20.70;99.90;;;;;;4997624;28;20397;-85
2022/11/12 10:18:31;;;;;;;9.75;3.50;;;20.50;99.90;;;;;;4999981;28;20467;-81
2022/11/12 10:21:09;;;;;;;7.82;3.03;;;20.50;99.90;;;;;;4993481;28;20802;-91
2022/11/12 10:23:45;;;;;;;7.75;3.13;;;20.50;99.90;;;;;;4996793;28;20878;-90
2022/11/12 10:26:15;;;;;;;9.65;3.13;;;20.40;99.90;;;;;;5011345;28;20794;-90
2022/11/12 10:29:00;;;;;;;7.88;3.47;;;20.50;99.90;;;;;;5000044;28;20792;-83
2022/11/12 10:31:27;;;;;;;7.22;3.45;;;20.50;99.90;;;;;;5001011;28;20435;-84
2022/11/12 10:34:09;;;;;;;8.77;3.70;;;20.40;99.90;;;;;;4999665;28;20388;-81
2022/11/12 10:36:37;;;;;;;10.93;3.50;;;20.30;99.90;;;;;;4997265;28;20440;-91
2022/11/12 10:39:04;;;;;;;6.93;3.38;;;20.30;99.90;;;;;;4985193;28;20374;-93
2022/11/12 10:41:34;;;;;;;8.52;3.30;;;20.20;99.90;;;;;;5011519;28;20390;-90
2022/11/12 10:44:04;;;;;;;10.20;3.60;;;20.20;99.90;;;;;;5011091;28;20375;-82
2022/11/12 10:46:38;;;;;;;10.13;3.60;;;20.20;99.90;;;;;;5010073;28;20419;-85
2022/11/12 10:49:15;;;;;;;6.70;3.30;;;20.10;99.90;;;;;;5012827;28;20386;-93
2022/11/12 10:51:57;;;;;;;9.32;3.45;;;20.00;99.90;;;;;;5011271;28;21255;-84
2022/11/12 10:54:35;;;;;;;7.95;3.40;;;20.00;99.90;;;;;;5008150;28;20775;-89
2022/11/12 10:57:28;;;;;;;9.68;3.70;;;20.00;99.90;;;;;;5014773;28;20386;-85
2022/11/12 11:00:17;;;;;;;7.27;3.60;;;19.90;99.90;;;;;;5009398;28;20401;-86
2022/11/12 11:02:55;;;;;;;8.52;3.15;;;19.90;99.90;;;;;;5008550;28;20540;-86
2022/11/12 11:05:58;;;;;;;7.53;2.92;;;19.80;99.90;;;;;;4997916;28;20396;-90
2022/11/12 11:08:36;;;;;;;7.10;3.00;;;19.70;99.90;;;;;;4949442;28;20518;-83
2022/11/12 11:11:30;;;;;;;6.60;3.10;;;19.60;99.90;;;;;;4952813;28;20427;-81
2022/11/12 11:14:18;;;;;;;8.35;3.30;;;19.60;99.90;;;;;;4952805;28;20392;-83
2022/11/12 11:17:07;;;;;;;6.55;3.15;;;19.50;99.90;;;;;;4952336;28;20414;-81
2022/11/12 11:19:40;;;;;;;6.90;3.13;;;19.50;99.90;;;;;;4952352;28;20813;-80
2022/11/12 11:22:28;;;;;;;9.32;3.40;;;19.50;99.90;;;;;;4953069;28;20868;-87
2022/11/12 11:25:11;;;;;;;7.78;3.50;;;19.50;99.90;;;;;;4952716;28;20396;-87
2022/11/12 11:27:57;;;;;;;9.10;3.30;;;19.50;99.90;;;;;;4952950;28;20525;-82
2022/11/12 11:30:24;;;;;;;10.07;2.97;;;19.40;99.90;;;;;;4953154;28;20420;-87
2022/11/12 11:33:06;;;;;;;8.10;3.03;;;19.40;99.90;;;;;;4952674;28;20413;-84
2022/11/12 11:36:00;;;;;;;9.80;3.10;;;19.40;99.90;;;;;;4954050;28;20400;-80
2022/11/12 11:38:34;;;;;;;6.25;2.70;;;19.30;99.90;;;;;;4946592;28;20475;-80
2022/11/12 11:41:29;;;;;;;7.83;3.20;;;19.30;99.90;;;;;;4956434;28;20396;-82
2022/11/12 11:44:11;;;;;;;8.55;3.20;;;19.30;99.90;;;;;;4959200;28;20498;-86
2022/11/12 11:46:47;;;;;;;6.78;3.10;;;19.20;99.90;;;;;;4984305;28;20379;-82
2022/11/12 11:49:34;;;;;;;6.68;2.83;;;19.20;99.90;;;;;;5003294;28;20747;-85
2022/11/12 11:52:04;;;;;;;8.27;3.07;;;19.20;99.90;;;;;;4986103;28;20753;-82
2022/11/12 11:54:43;;;;;;;10.93;3.15;;;19.30;99.90;;;;;;5004660;28;20859;-84
2022/11/12 11:57:25;;;;;;;8.82;3.00;;;19.30;99.90;;;;;;5013455;28;20391;-80
2022/11/12 12:00:10;;;;;;;7.30;2.72;;;19.30;99.90;;;;;;5012531;28;20871;-86
2022/11/12 12:03:12;;;;;;;8.77;2.65;;;19.30;99.90;;;;;;5012728;28;20383;-88
2022/11/12 12:05:59;;;;;;;8.20;2.60;;;19.30;99.90;;;;;;5013059;28;20413;-86
2022/11/12 12:08:44;;;;;;;8.73;2.67;;;19.40;99.90;;;;;;5009429;28;20466;-86
2022/11/12 12:12:12;;;;;;;7.87;2.90;;;19.30;99.90;;;;;;5007670;28;20412;-85
2022/11/12 12:14:39;;;;;;;8.82;3.00;;;19.40;99.90;;;;;;4909100;29;20406;-83
2022/11/12 12:17:09;;;;;;;9.02;3.00;;;19.30;99.90;;;;;;4913076;29;20542;-79
2022/11/12 12:19:41;;;;;;;8.82;2.90;;;19.30;99.90;;;;;;4913993;29;20752;-80
2022/11/12 12:22:18;;;;;;;11.67;3.07;;;19.30;99.90;;;;;;4901569;29;20388;-81
2022/11/12 12:24:58;;;;;;;7.32;3.03;;;19.20;99.90;;;;;;4913558;29;20938;-81
2022/11/12 12:27:33;;;;;;;9.10;3.83;;;19.30;99.90;;;;;;4913496;29;20812;-82
2022/11/12 12:30:22;;;;;;;9.05;3.88;;;19.20;99.90;;;;;;4913141;29;20407;-81
2022/11/12 12:33:18;;;;;;;9.60;3.53;;;19.10;99.90;;;;;;4907743;29;20395;-84
2022/11/12 12:35:51;;;;;;;9.13;3.20;;;19.00;99.90;;;;;;4908306;29;20486;-80
2022/11/12 12:38:24;;;;;;;7.28;3.30;;;19.00;99.90;;;;;;4913202;29;20418;-82
2022/11/12 12:41:02;;;;;;;8.32;3.00;;;18.90;99.90;;;;;;4906363;29;20798;-81
2022/11/12 12:43:43;;;;;;;7.37;3.00;;;19.00;99.90;;;;;;4913481;29;20843;-88
2022/11/12 12:46:13;;;;;;;11.15;3.30;;;18.90;99.90;;;;;;4913081;29;20555;-83
2022/11/12 12:48:45;;;;;;;8.75;3.10;;;19.00;99.90;;;;;;4911390;29;20486;-81
2022/11/12 12:51:12;;;;;;;8.30;2.83;;;19.00;99.90;;;;;;4977625;28;20448;-88
2022/11/12 12:53:39;;;;;;;9.65;3.15;;;19.00;99.90;;;;;;5003878;28;20818;-81
2022/11/12 12:56:32;;;;;;;8.38;3.20;;;19.10;99.90;;;;;;5000852;28;20392;-86
2022/11/12 12:59:06;;;;;;;7.83;3.60;;;19.00;99.90;;;;;;5010660;28;20434;-88
2022/11/12 13:01:35;;;;;;;8.45;4.00;;;19.10;99.90;;;;;;5007511;28;20939;-84
2022/11/12 13:04:10;;;;;;;11.07;3.40;;;19.10;99.90;;;;;;5011422;28;20391;-83
2022/11/12 13:06:40;;;;;;;8.63;3.60;;;19.10;99.90;;;;;;5013902;28;20387;-79
2022/11/12 13:09:23;;;;;;;8.90;3.60;;;19.00;99.90;;;;;;5009067;28;20385;-81
2022/11/12 13:14:35;;;;;;;10.07;3.70;;;18.80;99.90;;;;;;4997775;28;20392;-82
2022/11/12 13:17:10;;;;;;;8.45;3.45;;;18.80;99.90;;;;;;5000711;28;20446;-80
2022/11/12 13:19:56;;;;;;;9.02;3.85;;;18.70;99.90;;;;;;5005720;28;20424;-89
2022/11/12 13:22:25;;;;;;;8.98;3.60;;;18.70;99.90;;;;;;4998900;28;20400;-90
2022/11/12 13:25:23;;;;;;;11.57;4.23;;;18.70;99.90;;;;;;5008213;28;20382;-85
2022/11/12 13:27:50;;;;;;;8.80;4.03;;;18.60;99.90;;;;;;4994870;28;20389;-81
2022/11/12 13:30:40;;;;;;;10.47;4.20;;;18.50;99.90;;;;;;5007340;28;20398;-84